createdAt,value
2023-12-02T00:02:08.877Z,100701.38
2023-12-02T00:04:35.493Z,100703.97
2023-12-02T00:07:02.064Z,100713.56
2023-12-02T00:09:28.701Z,100706.59
2023-12-02T00:11:55.394Z,100703.13
2023-12-02T00:14:22.049Z,100699.66
2023-12-02T00:16:48.623Z,100707.50
2023-12-02T00:19:15.270Z,100703.09
2023-12-02T00:21:41.912Z,100696.16
2023-12-02T00:24:08.536Z,100697.75
2023-12-02T00:26:35.577Z,100696.94
2023-12-02T00:29:02.151Z,100692.53
2023-12-02T00:31:28.702Z,100692.53
2023-12-02T00:33:55.353Z,100688.13
2023-12-02T00:36:22.042Z,100691.59
2023-12-02T00:38:48.643Z,100691.56
2023-12-02T00:41:15.182Z,100693.31
2023-12-02T00:43:41.780Z,100687.19
2023-12-02T00:46:08.603Z,100686.31
2023-12-02T00:48:35.429Z,100688.09
2023-12-02T00:51:02.114Z,100680.31
2023-12-02T00:53:28.684Z,100680.31
2023-12-02T00:55:55.233Z,100683.91
2023-12-02T00:58:27.744Z,100683.88
2023-12-02T01:00:58.487Z,100678.63
2023-12-02T01:03:25.061Z,100683.00
2023-12-02T01:05:51.727Z,100676.03
2023-12-02T01:08:18.301Z,100679.53
2023-12-02T01:10:44.867Z,100679.53
2023-12-02T01:13:11.434Z,100687.41
2023-12-02T01:15:38.066Z,100679.50
2023-12-02T01:18:04.763Z,100688.31
2023-12-02T01:20:31.339Z,100689.09
2023-12-02T01:22:57.955Z,100692.53
2023-12-02T01:25:24.698Z,100689.91
2023-12-02T01:27:51.272Z,100689.91
2023-12-02T01:30:17.942Z,100693.38
2023-12-02T01:32:44.548Z,100696.84
2023-12-02T01:35:11.103Z,100696.00
2023-12-02T01:37:38.096Z,100689.91
2023-12-02T01:40:05.066Z,100679.38
2023-12-02T01:42:31.663Z,100696.97
2023-12-02T01:44:58.270Z,100692.59
2023-12-02T01:47:24.843Z,100687.41
2023-12-02T01:49:51.624Z,100690.00
2023-12-02T01:52:18.250Z,100688.31
2023-12-02T01:54:44.798Z,100685.72
2023-12-02T01:57:11.434Z,100683.09
2023-12-02T01:59:40.485Z,100688.31
2023-12-02T02:02:07.358Z,100687.44
2023-12-02T02:04:34.008Z,100689.16
2023-12-02T02:07:00.608Z,100681.31
2023-12-02T02:09:27.229Z,100689.16
2023-12-02T02:11:53.899Z,100688.31
2023-12-02T02:14:20.455Z,100690.94
2023-12-02T02:16:47.017Z,100691.81
2023-12-02T02:19:13.749Z,100695.31
2023-12-02T02:21:40.435Z,100691.84
2023-12-02T02:24:07.067Z,100697.94
2023-12-02T02:26:33.660Z,100697.94
2023-12-02T02:29:00.204Z,100698.78
2023-12-02T02:31:26.763Z,100695.31
2023-12-02T02:33:53.321Z,100705.88
2023-12-02T02:36:19.920Z,100696.22
2023-12-02T02:38:46.442Z,100697.06
2023-12-02T02:41:13.047Z,100692.69
2023-12-02T02:43:39.624Z,100687.47
2023-12-02T02:46:06.863Z,100684.84
2023-12-02T02:48:33.517Z,100685.75
2023-12-02T02:51:00.232Z,100689.28
2023-12-02T02:53:26.841Z,100688.41
2023-12-02T02:55:53.401Z,100693.69
2023-12-02T02:58:20.220Z,100698.00
2023-12-02T03:00:47.202Z,100692.78
2023-12-02T03:03:14.022Z,100696.28
2023-12-02T03:05:40.909Z,100699.78
2023-12-02T03:08:07.696Z,100693.63
2023-12-02T03:10:35.242Z,100694.47
2023-12-02T03:13:02.228Z,100690.97
2023-12-02T03:15:29.156Z,100684.00
2023-12-02T03:17:55.899Z,100685.78
2023-12-02T03:20:22.524Z,100691.00
2023-12-02T03:22:49.087Z,100689.28
2023-12-02T03:25:15.710Z,100684.94
2023-12-02T03:27:42.273Z,100691.06
2023-12-02T03:30:09.330Z,100689.28
2023-12-02T03:32:38.192Z,100691.91
2023-12-02T03:35:05.727Z,100693.66
2023-12-02T03:37:32.268Z,100683.09
2023-12-02T03:39:58.807Z,100692.81
2023-12-02T03:42:25.361Z,100690.25
2023-12-02T03:44:51.971Z,100692.00
2023-12-02T03:47:18.525Z,100693.72
2023-12-02T03:49:45.092Z,100697.25
2023-12-02T03:52:11.658Z,100693.72
2023-12-02T03:54:38.276Z,100694.56
2023-12-02T03:57:05.079Z,100697.16
2023-12-02T03:59:31.636Z,100688.38
2023-12-02T04:01:58.649Z,100688.31
2023-12-02T04:04:25.424Z,100697.06
2023-12-02T04:06:52.052Z,100692.75
2023-12-02T04:09:18.684Z,100691.91
2023-12-02T04:11:48.477Z,100701.47
2023-12-02T04:14:15.085Z,100694.50
2023-12-02T04:16:42.018Z,100703.28
2023-12-02T04:19:11.705Z,100705.03
2023-12-02T04:21:42.459Z,100700.66
2023-12-02T04:24:09.112Z,100705.03
2023-12-02T04:26:36.561Z,100699.78
2023-12-02T04:29:03.158Z,100703.28
2023-12-02T04:31:31.065Z,100703.28
2023-12-02T04:33:57.780Z,100707.66
2023-12-02T04:36:24.466Z,100704.16
2023-12-02T04:38:51.099Z,100701.53
2023-12-02T04:41:17.675Z,100701.47
2023-12-02T04:43:44.590Z,100711.06
2023-12-02T04:46:11.194Z,100711.06
2023-12-02T04:48:37.787Z,100718.94
2023-12-02T04:51:04.662Z,100714.59
2023-12-02T04:53:31.241Z,100718.13
2023-12-02T04:55:57.804Z,100720.75
2023-12-02T04:58:24.361Z,100716.53
2023-12-02T05:00:50.968Z,100720.00
2023-12-02T05:03:17.669Z,100720.88
2023-12-02T05:05:44.934Z,100721.75
2023-12-02T05:08:11.530Z,100730.44
2023-12-02T05:10:38.095Z,100725.19
2023-12-02T05:13:04.669Z,100728.66
2023-12-02T05:15:31.307Z,100729.56
2023-12-02T05:17:57.969Z,100734.84
2023-12-02T05:20:24.559Z,100730.44
2023-12-02T05:22:51.355Z,100731.25
2023-12-02T05:25:17.985Z,100734.75
2023-12-02T05:27:44.585Z,100734.78
2023-12-02T05:30:11.808Z,100735.66
2023-12-02T05:32:38.446Z,100740.91
2023-12-02T05:35:05.531Z,100733.09
2023-12-02T05:37:32.217Z,100735.72
2023-12-02T05:39:58.719Z,100734.84
2023-12-02T05:42:25.385Z,100735.72
2023-12-02T05:44:52.000Z,100733.09
2023-12-02T05:47:18.550Z,100737.50
2023-12-02T05:49:45.077Z,100733.09
2023-12-02T05:52:11.815Z,100739.22
2023-12-02T05:54:38.542Z,100734.84
2023-12-02T05:57:05.414Z,100734.84
2023-12-02T05:59:31.989Z,100732.25
2023-12-02T06:01:58.561Z,100734.03
2023-12-02T06:04:25.154Z,100741.91
2023-12-02T06:06:51.758Z,100735.78
2023-12-02T06:09:18.337Z,100737.50
2023-12-02T06:11:44.949Z,100745.38
2023-12-02T06:14:11.532Z,100745.34
2023-12-02T06:16:38.075Z,100747.97
2023-12-02T06:19:04.826Z,100747.97
2023-12-02T06:21:31.508Z,100748.81
2023-12-02T06:23:58.164Z,100748.84
2023-12-02T06:26:24.741Z,100756.69
2023-12-02T06:28:51.346Z,100754.06
2023-12-02T06:31:17.892Z,100765.44
2023-12-02T06:33:44.585Z,100761.13
2023-12-02T06:36:11.728Z,100759.34
2023-12-02T06:38:38.311Z,100766.31
2023-12-02T06:41:05.049Z,100761.94
2023-12-02T06:43:31.618Z,100766.28
2023-12-02T06:45:58.153Z,100775.03
2023-12-02T06:48:24.793Z,100771.53
2023-12-02T06:50:51.363Z,100775.88
2023-12-02T06:53:17.953Z,100785.50
2023-12-02T06:55:44.498Z,100784.59
2023-12-02T06:58:11.093Z,100785.44
2023-12-02T07:00:37.755Z,100788.09
2023-12-02T07:03:04.390Z,100789.00
2023-12-02T07:05:31.018Z,100789.97
2023-12-02T07:07:57.600Z,100789.97
2023-12-02T07:10:24.186Z,100795.22
2023-12-02T07:12:50.751Z,100794.31
2023-12-02T07:15:17.485Z,100803.88
2023-12-02T07:17:44.129Z,100797.75
2023-12-02T07:20:11.245Z,100803.88
2023-12-02T07:22:37.784Z,100807.34
2023-12-02T07:25:04.844Z,100814.34
2023-12-02T07:27:31.477Z,100816.91
2023-12-02T07:32:27.579Z,100811.69
2023-12-02T07:34:54.282Z,100825.78
2023-12-02T07:37:20.823Z,100825.78
2023-12-02T07:39:47.361Z,100826.66
2023-12-02T07:42:14.115Z,100823.19
2023-12-02T07:44:40.601Z,100831.97
2023-12-02T07:47:07.199Z,100837.25
2023-12-02T07:49:33.817Z,100837.25
2023-12-02T07:52:00.614Z,100839.91
2023-12-02T07:54:27.113Z,100845.13
2023-12-02T07:56:53.600Z,100837.22
2023-12-02T07:59:20.086Z,100846.84
2023-12-02T08:01:46.816Z,100849.44
2023-12-02T08:04:13.506Z,100855.53
2023-12-02T08:06:40.081Z,100849.44
2023-12-02T08:09:06.654Z,100857.31
2023-12-02T08:11:33.163Z,100854.69
2023-12-02T08:13:59.782Z,100859.06
2023-12-02T08:16:26.494Z,100859.97
2023-12-02T08:18:53.399Z,100861.69
2023-12-02T08:21:20.005Z,100859.97
2023-12-02T08:23:46.547Z,100863.53
2023-12-02T08:26:13.144Z,100867.97
2023-12-02T08:28:39.762Z,100866.25
2023-12-02T08:31:06.522Z,100875.88
2023-12-02T08:33:33.125Z,100871.50
2023-12-02T08:35:59.683Z,100874.13
2023-12-02T08:38:26.361Z,100887.22
2023-12-02T08:40:52.934Z,100870.59
2023-12-02T08:43:19.550Z,100885.50
2023-12-02T08:45:46.108Z,100886.38
2023-12-02T08:48:12.803Z,100892.50
2023-12-02T08:50:39.422Z,100898.59
2023-12-02T08:53:06.113Z,100892.47
2023-12-02T08:55:32.732Z,100902.09
2023-12-02T08:57:59.355Z,100904.72
2023-12-02T09:00:25.995Z,100896.97
2023-12-02T09:02:52.689Z,100907.50
2023-12-02T09:05:19.792Z,100909.28
2023-12-02T09:07:46.404Z,100909.31
2023-12-02T09:10:26.780Z,100905.84
2023-12-02T09:12:55.494Z,100904.16
2023-12-02T09:15:22.075Z,100915.50
2023-12-02T09:18:11.013Z,100913.78
2023-12-02T09:20:48.132Z,100917.25
2023-12-02T09:23:16.394Z,100920.78
2023-12-02T09:25:43.658Z,100918.22
2023-12-02T09:28:14.784Z,100923.47
2023-12-02T09:30:41.980Z,100918.22
2023-12-02T09:33:08.905Z,100926.06
2023-12-02T09:35:35.697Z,100926.09
2023-12-02T09:38:03.030Z,100926.06
2023-12-02T09:40:52.202Z,100919.94
2023-12-02T09:43:27.804Z,100927.03
2023-12-02T09:46:18.014Z,100927.19
2023-12-02T09:48:48.101Z,100926.38
2023-12-02T09:51:27.949Z,100923.81
2023-12-02T09:54:13.359Z,100924.72
2023-12-02T09:56:42.480Z,100922.06
2023-12-02T09:59:20.064Z,100922.97
2023-12-02T10:02:09.436Z,100926.50
2023-12-02T10:05:01.182Z,100929.19
2023-12-02T10:07:41.823Z,100910.72
2023-12-02T10:10:09.722Z,100923.03
2023-12-02T10:13:14.134Z,100923.03
2023-12-02T10:15:41.064Z,100919.56
2023-12-02T10:18:14.843Z,100929.25
2023-12-02T10:20:43.124Z,100926.72
2023-12-02T10:23:15.730Z,100930.19
2023-12-02T10:25:43.579Z,100927.59
2023-12-02T10:28:34.055Z,100934.59
2023-12-02T10:31:00.868Z,100931.13
2023-12-02T10:33:29.057Z,100930.31
2023-12-02T10:36:04.139Z,100928.56
2023-12-02T10:39:07.646Z,100926.84
2023-12-02T10:41:46.857Z,100937.34
2023-12-02T10:44:15.017Z,100925.94
2023-12-02T10:46:41.710Z,100939.97
2023-12-02T10:49:08.550Z,100937.34
2023-12-02T10:51:37.538Z,100938.25
2023-12-02T10:54:04.682Z,100936.50
2023-12-02T10:56:31.389Z,100933.84
2023-12-02T10:58:58.136Z,100934.81
2023-12-02T11:01:50.555Z,100924.31
2023-12-02T11:04:30.236Z,100936.63
2023-12-02T11:07:02.872Z,100927.94
2023-12-02T11:09:56.716Z,100930.59
2023-12-02T11:12:29.193Z,100936.81
2023-12-02T11:14:58.996Z,100939.44
2023-12-02T11:17:32.049Z,100942.03
2023-12-02T11:20:23.234Z,100933.31
2023-12-02T11:22:55.541Z,100943.84
2023-12-02T11:25:25.092Z,100938.56
2023-12-02T11:28:04.466Z,100937.69
2023-12-02T11:30:47.595Z,100938.63
2023-12-02T11:33:17.283Z,100934.22
2023-12-02T11:36:10.108Z,100940.28
2023-12-02T11:38:36.826Z,100930.59
2023-12-02T11:41:11.086Z,100933.19
2023-12-02T11:44:05.141Z,100933.19
2023-12-02T11:46:34.158Z,100936.75
2023-12-02T11:49:15.989Z,100936.81
2023-12-02T11:51:42.605Z,100936.81
2023-12-02T11:54:34.371Z,100940.28
2023-12-02T11:57:11.824Z,100935.84
2023-12-02T12:00:17.160Z,100948.94
2023-12-02T12:02:52.261Z,100949.78
2023-12-02T12:05:24.861Z,100948.88
2023-12-02T12:08:24.245Z,100949.75
2023-12-02T12:10:51.683Z,100944.53
2023-12-02T12:13:20.621Z,100951.53
2023-12-02T12:15:47.387Z,100943.59
2023-12-02T12:18:14.211Z,100940.06
2023-12-02T12:20:43.383Z,100939.28
2023-12-02T12:23:10.083Z,100935.81
2023-12-02T12:25:37.787Z,100939.44
2023-12-02T12:28:05.009Z,100936.81
2023-12-02T12:30:42.491Z,100938.66
2023-12-02T12:33:19.508Z,100942.22
2023-12-02T12:35:46.410Z,100937.00
2023-12-02T12:38:13.102Z,100945.75
2023-12-02T12:40:43.053Z,100947.53
2023-12-02T12:43:10.273Z,100944.00
2023-12-02T12:45:37.976Z,100947.53
2023-12-02T12:48:05.953Z,100953.63
2023-12-02T12:50:32.894Z,100959.75
2023-12-02T12:53:10.184Z,100956.19
2023-12-02T12:55:38.485Z,100967.47
2023-12-02T12:58:08.579Z,100956.09
2023-12-02T13:00:40.260Z,100959.72
2023-12-02T13:03:18.662Z,100964.13
2023-12-02T13:05:45.447Z,100962.41
2023-12-02T13:08:40.730Z,100972.06
2023-12-02T13:11:18.602Z,100967.75
2023-12-02T13:13:54.084Z,100970.47
2023-12-02T13:16:22.641Z,100966.97
2023-12-02T13:18:50.504Z,100969.63
2023-12-02T13:21:17.633Z,100973.97
2023-12-02T13:23:44.729Z,100975.63
2023-12-02T13:26:11.425Z,100970.34
2023-12-02T13:28:38.197Z,100968.53
2023-12-02T13:31:05.420Z,100984.16
2023-12-02T13:33:46.608Z,100982.41
2023-12-02T13:36:13.793Z,100987.69
2023-12-02T13:38:50.505Z,100993.84
2023-12-02T13:41:20.334Z,100993.84
2023-12-02T13:43:52.025Z,100998.16
2023-12-02T13:46:18.974Z,101002.44
2023-12-02T13:49:03.810Z,101001.50
2023-12-02T13:51:31.422Z,101000.50
2023-12-02T13:54:07.899Z,101003.06
2023-12-02T13:56:46.181Z,101007.47
2023-12-02T13:59:20.044Z,101008.31
2023-12-02T14:01:55.151Z,101016.09
2023-12-02T14:05:00.342Z,101012.47
2023-12-02T14:07:30.129Z,101004.47
2023-12-02T14:09:56.883Z,101015.75
2023-12-02T14:12:49.403Z,101013.88
2023-12-02T14:15:34.994Z,101024.28
2023-12-02T14:18:23.633Z,101024.16
2023-12-02T14:20:50.360Z,101036.31
2023-12-02T14:23:27.389Z,101024.81
2023-12-02T14:26:18.510Z,101031.91
2023-12-02T14:29:06.566Z,101033.72
2023-12-02T14:31:36.220Z,101035.50
2023-12-02T14:34:31.317Z,101032.78
2023-12-02T14:37:04.116Z,101039.66
2023-12-02T14:39:55.402Z,101053.50
2023-12-02T14:42:32.196Z,101050.75
2023-12-02T14:44:59.398Z,101055.97
2023-12-02T14:47:26.193Z,101070.81
2023-12-02T14:49:52.890Z,101069.94
2023-12-02T14:52:20.169Z,101080.50
2023-12-02T14:54:47.508Z,101084.84
2023-12-02T14:57:18.781Z,101095.34
2023-12-02T14:59:46.338Z,101089.22
2023-12-02T15:02:34.831Z,101097.16
2023-12-02T15:05:05.563Z,101099.84
2023-12-02T15:07:33.200Z,101099.84
2023-12-02T15:10:00.484Z,101109.44
2023-12-02T15:12:27.255Z,101113.81
2023-12-02T15:14:55.859Z,101120.75
2023-12-02T15:17:22.871Z,101119.84
2023-12-02T15:19:49.630Z,101123.31
2023-12-02T15:22:19.666Z,101128.53
2023-12-02T15:24:46.448Z,101143.50
2023-12-02T15:27:13.162Z,101143.47
2023-12-02T15:29:39.918Z,101145.19
2023-12-02T15:32:06.706Z,101157.44
2023-12-02T15:34:34.521Z,101163.63
2023-12-02T15:37:01.339Z,101161.94
2023-12-02T15:39:28.137Z,101170.69
2023-12-02T15:41:54.856Z,101173.41
2023-12-02T15:44:21.617Z,101176.88
2023-12-02T15:46:48.297Z,101181.16
2023-12-02T15:49:15.115Z,101177.66
2023-12-02T15:51:41.925Z,101186.41
2023-12-02T15:54:08.744Z,101188.22
2023-12-02T15:56:35.451Z,101188.28
2023-12-02T15:59:02.163Z,101190.91
2023-12-02T16:01:28.886Z,101199.59
2023-12-02T16:03:56.016Z,101205.72
2023-12-02T16:06:23.239Z,101204.78
2023-12-02T16:08:50.245Z,101212.78
2023-12-02T16:11:16.954Z,101210.19
2023-12-02T16:13:43.771Z,101216.31
2023-12-02T16:16:14.732Z,101223.19
2023-12-02T16:18:43.105Z,101226.56
2023-12-02T16:21:11.189Z,101235.13
2023-12-02T16:23:37.980Z,101237.75
2023-12-02T16:26:04.903Z,101235.09
2023-12-02T16:28:34.598Z,101244.63
2023-12-02T16:31:03.996Z,101248.25
2023-12-02T16:33:30.861Z,101247.47
2023-12-02T16:35:57.662Z,101251.94
2023-12-02T16:38:24.414Z,101247.63
2023-12-02T16:40:52.696Z,101257.22
2023-12-02T16:43:20.244Z,101258.97
2023-12-02T16:45:47.303Z,101259.88
2023-12-02T16:48:14.823Z,101258.13
2023-12-02T16:50:45.490Z,101264.19
2023-12-02T16:53:12.752Z,101266.72
2023-12-02T16:55:39.472Z,101272.78
2023-12-02T16:58:07.257Z,101268.34
2023-12-02T17:00:36.917Z,101276.25
2023-12-02T17:03:03.881Z,101274.66
2023-12-02T17:05:33.671Z,101272.16
2023-12-02T17:08:04.159Z,101274.81
2023-12-02T17:10:43.072Z,101282.63
2023-12-02T17:13:26.122Z,101276.41
2023-12-02T17:15:53.217Z,101282.38
2023-12-02T17:19:02.080Z,101285.06
2023-12-02T17:21:31.713Z,101291.28
2023-12-02T17:23:58.973Z,101293.88
2023-12-02T17:26:28.078Z,101291.13
2023-12-02T17:28:55.060Z,101299.00
2023-12-02T17:31:21.797Z,101289.31
2023-12-02T17:33:48.529Z,101285.75
2023-12-02T17:36:15.735Z,101296.97
2023-12-02T17:38:42.536Z,101296.97
2023-12-02T17:41:09.275Z,101299.66
2023-12-02T17:43:35.958Z,101304.09
2023-12-02T17:46:02.802Z,101295.38
2023-12-02T17:48:29.681Z,101295.31
2023-12-02T17:50:56.504Z,101291.75
2023-12-02T17:53:23.830Z,101292.66
2023-12-02T17:55:50.644Z,101289.84
2023-12-02T17:58:17.310Z,101291.47
2023-12-02T18:00:44.695Z,101290.59
2023-12-02T18:03:11.878Z,101291.47
2023-12-02T18:05:38.706Z,101295.81
2023-12-02T18:08:05.404Z,101289.72
2023-12-02T18:10:32.153Z,101287.97
2023-12-02T18:12:58.853Z,101294.97
2023-12-02T18:15:25.656Z,101293.31
2023-12-02T18:17:52.451Z,101284.72
2023-12-02T18:20:19.197Z,101291.69
2023-12-02T18:22:46.437Z,101286.50
2023-12-02T18:25:13.152Z,101289.09
2023-12-02T18:27:39.920Z,101296.94
2023-12-02T18:30:07.321Z,101291.69
2023-12-02T18:32:34.144Z,101295.97
2023-12-02T18:35:00.914Z,101288.06
2023-12-02T18:37:27.654Z,101293.28
2023-12-02T18:39:54.962Z,101295.97
2023-12-02T18:42:21.739Z,101297.75
2023-12-02T18:44:48.493Z,101305.56
2023-12-02T18:47:15.233Z,101303.72
2023-12-02T18:49:41.929Z,101299.34
2023-12-02T18:52:08.741Z,101312.34
2023-12-02T18:54:35.495Z,101317.34
2023-12-02T18:57:02.248Z,101320.75
2023-12-02T18:59:29.350Z,101322.44
2023-12-02T19:01:56.148Z,101328.53
2023-12-02T19:04:22.884Z,101320.53
2023-12-02T19:06:49.590Z,101325.88
2023-12-02T19:09:16.372Z,101321.50
2023-12-02T19:11:43.167Z,101325.22
2023-12-02T19:14:09.966Z,101330.53
2023-12-02T19:16:36.738Z,101330.56
2023-12-02T19:19:04.076Z,101331.44
2023-12-02T19:21:33.524Z,101315.59
2023-12-02T19:24:00.305Z,101331.41
2023-12-02T19:26:27.001Z,101328.75
2023-12-02T19:28:53.852Z,101341.91
2023-12-02T19:31:20.551Z,101339.44
2023-12-02T19:33:47.377Z,101342.09
2023-12-02T19:36:14.304Z,101344.56
2023-12-02T19:38:41.341Z,101344.44
2023-12-02T19:41:08.319Z,101355.66
2023-12-02T19:43:35.087Z,101354.72
2023-12-02T19:46:01.824Z,101365.19
2023-12-02T19:48:28.688Z,101359.13
2023-12-02T19:50:55.435Z,101366.06
2023-12-02T19:53:22.081Z,101361.72
2023-12-02T19:55:48.802Z,101373.94
2023-12-02T19:58:15.607Z,101371.38
2023-12-02T20:00:42.376Z,101369.59
2023-12-02T20:03:09.261Z,101376.69
2023-12-02T20:05:36.094Z,101373.31
2023-12-02T20:08:02.862Z,101379.50
2023-12-02T20:10:29.518Z,101379.63
2023-12-02T20:12:56.270Z,101376.97
2023-12-02T20:15:23.095Z,101381.41
2023-12-02T20:17:49.867Z,101384.91
2023-12-02T20:20:16.691Z,101387.56
2023-12-02T20:22:43.430Z,101390.16
2023-12-02T20:25:10.156Z,101388.34
2023-12-02T20:27:36.941Z,101397.88
2023-12-02T20:30:04.046Z,101404.66
2023-12-02T20:32:30.976Z,101406.22
2023-12-02T20:34:57.811Z,101406.91
2023-12-02T20:37:24.544Z,101405.91
2023-12-02T20:39:51.348Z,101407.53
2023-12-02T20:42:18.137Z,101409.28
2023-12-02T20:44:44.875Z,101410.97
2023-12-02T20:47:12.178Z,101412.75
2023-12-02T20:49:39.017Z,101418.06
2023-12-02T20:52:06.858Z,101419.91
2023-12-02T20:54:33.737Z,101429.56
2023-12-02T20:57:00.478Z,101433.09
2023-12-02T20:59:27.156Z,101432.00
2023-12-02T21:01:53.944Z,101431.09
2023-12-02T21:04:20.690Z,101432.81
2023-12-02T21:06:47.484Z,101432.00
2023-12-02T21:09:14.363Z,101430.25
2023-12-02T21:11:41.062Z,101435.47
2023-12-02T21:14:07.811Z,101434.50
2023-12-02T21:16:34.496Z,101430.16
2023-12-02T21:19:01.241Z,101429.22
2023-12-02T21:21:27.973Z,101437.13
2023-12-02T21:23:54.685Z,101432.78
2023-12-02T21:26:21.330Z,101433.69
2023-12-02T21:28:48.927Z,101430.25
2023-12-02T21:31:15.770Z,101426.78
2023-12-02T21:33:42.613Z,101430.28
2023-12-02T21:36:09.885Z,101433.66
2023-12-02T21:38:43.470Z,101436.41
2023-12-02T21:41:12.277Z,101438.09
2023-12-02T21:43:38.996Z,101440.56
2023-12-02T21:46:06.007Z,101444.03
2023-12-02T21:48:42.716Z,101440.63
2023-12-02T21:51:33.056Z,101444.13
2023-12-02T21:54:09.425Z,101441.38
2023-12-02T21:56:46.268Z,101449.19
2023-12-02T21:59:22.455Z,101458.03
2023-12-02T22:01:55.770Z,101454.63
2023-12-02T22:04:23.460Z,101459.22
2023-12-02T22:06:52.270Z,101454.88
2023-12-02T22:09:21.859Z,101455.78
2023-12-02T22:11:48.494Z,101467.13
2023-12-02T22:14:23.447Z,101466.38
2023-12-02T22:17:00.347Z,101468.25
2023-12-02T22:19:27.188Z,101473.63
2023-12-02T22:21:54.254Z,101483.34
2023-12-02T22:24:21.228Z,101482.50
2023-12-02T22:26:48.037Z,101484.31
2023-12-02T22:29:27.213Z,101486.22
2023-12-02T22:31:54.494Z,101491.47
2023-12-02T22:34:22.423Z,101485.09
2023-12-02T22:36:49.302Z,101488.44
2023-12-02T22:39:28.605Z,101490.97
2023-12-02T22:41:56.365Z,101490.19
2023-12-02T22:44:23.637Z,101492.78
2023-12-02T22:46:59.209Z,101491.88
2023-12-02T22:49:27.386Z,101503.22
2023-12-02T22:51:54.808Z,101504.91
2023-12-02T22:54:28.483Z,101501.41
2023-12-02T22:56:55.664Z,101504.88
2023-12-02T22:59:22.316Z,101503.94
2023-12-02T23:01:50.028Z,101507.25
2023-12-02T23:04:38.927Z,101505.44
2023-12-02T23:07:12.000Z,101503.56
2023-12-02T23:09:51.785Z,101504.41
2023-12-02T23:12:31.099Z,101516.63
2023-12-02T23:15:29.903Z,101503.53
2023-12-02T23:17:56.743Z,101503.56
2023-12-02T23:20:33.592Z,101512.25
2023-12-02T23:23:00.439Z,101505.28
2023-12-02T23:25:27.468Z,101512.34
2023-12-02T23:27:54.469Z,101512.34
2023-12-02T23:30:21.548Z,101516.69
2023-12-02T23:32:48.614Z,101518.34
2023-12-02T23:35:20.486Z,101519.19
2023-12-02T23:37:48.118Z,101515.72
2023-12-02T23:40:50.325Z,101510.50
2023-12-02T23:43:35.546Z,101517.69
2023-12-02T23:46:03.814Z,101506.38
2023-12-02T23:48:30.644Z,101514.28
2023-12-02T23:50:57.454Z,101514.38
2023-12-02T23:53:24.251Z,101518.91
2023-12-02T23:55:51.587Z,101507.59
2023-12-02T23:58:18.394Z,101516.28
